createdAt,value
2022-09-05T00:00:02.849Z,17.45
2022-09-05T00:02:48.293Z,17.60
2022-09-05T00:05:55.489Z,17.60
2022-09-05T00:08:42.720Z,17.26
2022-09-05T00:11:41.707Z,16.99
2022-09-05T00:15:17.087Z,17.28
2022-09-05T00:18:45.491Z,17.27
2022-09-05T00:24:27.971Z,17.27
2022-09-05T00:24:37.160Z,17.30
2022-09-05T00:26:51.991Z,17.44
2022-09-05T00:30:00.050Z,17.47
2022-09-05T00:32:31.307Z,17.13
2022-09-05T00:35:13.059Z,17.18
2022-09-05T00:37:49.058Z,17.17
2022-09-05T00:40:28.586Z,17.21
2022-09-05T00:43:02.235Z,17.15
2022-09-05T00:45:38.123Z,17.09
2022-09-05T00:48:23.999Z,17.17
2022-09-05T00:51:21.128Z,17.28
2022-09-05T00:54:40.459Z,17.09
2022-09-05T00:57:45.452Z,16.93
2022-09-05T01:00:18.720Z,16.57
2022-09-05T01:03:09.908Z,16.93
2022-09-05T01:06:03.060Z,16.92
2022-09-05T01:09:08.153Z,16.72
2022-09-05T01:11:52.948Z,16.85
2022-09-05T01:14:47.631Z,16.75
2022-09-05T01:17:38.288Z,16.75
2022-09-05T01:20:31.412Z,16.70
2022-09-05T01:23:35.560Z,16.60
2022-09-05T01:26:18.940Z,16.27
2022-09-05T01:29:16.063Z,16.06
2022-09-05T01:32:01.561Z,16.04
2022-09-05T01:34:41.804Z,16.42
2022-09-05T01:37:33.785Z,16.39
2022-09-05T01:40:17.308Z,16.46
2022-09-05T01:43:03.977Z,16.51
2022-09-05T01:45:50.678Z,16.68
2022-09-05T01:48:33.055Z,16.56
2022-09-05T01:51:29.001Z,16.74
2022-09-05T01:54:23.724Z,16.76
2022-09-05T01:57:09.268Z,16.70
2022-09-05T01:59:48.817Z,16.82
2022-09-05T02:02:39.680Z,16.84
2022-09-05T02:05:29.050Z,16.86
2022-09-05T02:08:24.608Z,16.56
2022-09-05T02:11:06.517Z,16.58
2022-09-05T02:14:01.673Z,16.67
2022-09-05T02:16:45.052Z,16.74
2022-09-05T02:19:25.321Z,16.70
2022-09-05T02:22:04.646Z,16.71
2022-09-05T02:24:39.794Z,16.81
2022-09-05T02:27:38.881Z,16.54
2022-09-05T02:30:21.171Z,16.38
2022-09-05T02:33:00.063Z,16.40
2022-09-05T02:35:42.223Z,16.48
2022-09-05T02:38:47.145Z,16.55
2022-09-05T02:45:08.055Z,16.23
2022-09-05T02:45:14.211Z,16.23
2022-09-05T02:47:07.172Z,16.28
2022-09-05T02:52:03.873Z,16.31
2022-09-05T02:57:25.701Z,16.07
2022-09-05T02:57:35.240Z,16.26
2022-09-05T02:59:09.104Z,16.23
2022-09-05T03:01:57.728Z,16.38
2022-09-05T03:04:34.916Z,16.18
2022-09-05T03:07:22.767Z,16.03
2022-09-05T03:10:47.130Z,16.20
2022-09-05T03:14:01.788Z,16.04
2022-09-05T03:17:01.420Z,15.89
2022-09-05T03:20:04.658Z,15.85
2022-09-05T03:23:06.687Z,15.72
2022-09-05T03:26:27.177Z,15.73
2022-09-05T03:29:32.745Z,15.80
2022-09-05T03:32:40.341Z,15.76
2022-09-05T03:35:47.869Z,15.68
2022-09-05T03:38:51.258Z,15.69
2022-09-05T03:41:44.968Z,15.52
2022-09-05T03:44:35.278Z,15.67
2022-09-05T03:47:35.978Z,15.82
2022-09-05T03:56:56.916Z,15.87
2022-09-05T03:57:18.763Z,15.88
2022-09-05T03:57:38.599Z,15.83
2022-09-05T04:00:23.656Z,15.40
2022-09-05T04:08:06.829Z,15.43
2022-09-05T04:08:20.390Z,15.43
2022-09-05T04:09:10.732Z,15.48
2022-09-05T04:11:44.638Z,15.46
2022-09-05T04:14:24.128Z,15.67
2022-09-05T04:17:00.568Z,15.45
2022-09-05T04:19:37.272Z,15.45
2022-09-05T04:22:24.281Z,15.61
2022-09-05T04:25:04.472Z,15.34
2022-09-05T04:27:43.727Z,15.44
2022-09-05T04:30:38.901Z,15.72
2022-09-05T04:33:36.675Z,15.58
2022-09-05T04:36:21.505Z,15.52
2022-09-05T04:39:10.829Z,15.47
2022-09-05T04:41:46.236Z,15.61
2022-09-05T04:44:20.354Z,15.63
2022-09-05T04:46:53.868Z,15.53
2022-09-05T04:49:30.797Z,15.20
2022-09-05T04:52:31.634Z,15.50
2022-09-05T04:55:09.174Z,15.69
2022-09-05T04:57:45.208Z,15.59
2022-09-05T05:06:00.244Z,15.63
2022-09-05T05:06:16.109Z,15.53
2022-09-05T05:06:43.823Z,15.69
2022-09-05T05:09:09.321Z,15.47
2022-09-05T05:18:01.692Z,15.52
2022-09-05T05:18:06.384Z,15.55
2022-09-05T05:18:15.781Z,15.44
2022-09-05T05:20:42.969Z,15.54
2022-09-05T05:23:18.733Z,15.52
2022-09-05T05:25:54.316Z,15.66
2022-09-05T05:28:32.217Z,15.64
2022-09-05T05:31:14.186Z,15.77
2022-09-05T05:33:47.850Z,15.60
2022-09-05T05:36:23.608Z,15.61
2022-09-05T05:39:04.027Z,15.76
2022-09-05T05:41:43.034Z,15.83
2022-09-05T05:44:16.225Z,15.68
2022-09-05T05:46:49.843Z,15.68
2022-09-05T05:49:37.221Z,15.74
2022-09-05T05:52:29.784Z,15.93
2022-09-05T05:55:51.557Z,15.84
2022-09-05T05:58:17.988Z,15.85
2022-09-05T06:01:37.320Z,15.76
2022-09-05T06:04:28.149Z,15.89
2022-09-05T06:07:09.815Z,15.79
2022-09-05T06:12:40.114Z,15.85
2022-09-05T06:14:57.994Z,15.90
2022-09-05T06:17:07.242Z,15.92
2022-09-05T06:22:04.398Z,16.15
2022-09-05T06:23:34.801Z,16.08
2022-09-05T06:26:32.464Z,16.12
2022-09-05T06:29:12.803Z,16.20
2022-09-05T06:32:09.462Z,16.14
2022-09-05T06:35:19.696Z,16.18
2022-09-05T06:37:59.554Z,16.20
2022-09-05T06:40:34.550Z,16.32
2022-09-05T06:43:31.407Z,16.86
2022-09-05T06:46:55.187Z,17.57
2022-09-05T06:49:30.918Z,18.12
2022-09-05T06:52:39.040Z,18.60
2022-09-05T06:55:33.607Z,18.95
2022-09-05T06:58:57.394Z,19.10
2022-09-05T07:01:55.204Z,19.37
2022-09-05T07:05:36.926Z,19.60
2022-09-05T07:07:30.926Z,19.99
2022-09-05T07:10:22.197Z,20.10
2022-09-05T07:13:00.309Z,20.06
2022-09-05T07:15:43.952Z,19.92
2022-09-05T07:18:22.266Z,19.90
2022-09-05T07:21:16.001Z,19.97
2022-09-05T07:24:08.848Z,20.20
2022-09-05T07:26:52.491Z,20.64
2022-09-05T07:29:30.936Z,20.91
2022-09-05T07:32:06.563Z,20.99
2022-09-05T07:34:38.048Z,21.06
2022-09-05T07:37:15.585Z,21.34
2022-09-05T07:39:51.278Z,21.69
2022-09-05T07:42:27.243Z,21.80
2022-09-05T07:44:59.718Z,21.92
2022-09-05T07:47:34.305Z,22.29
2022-09-05T07:51:59.166Z,22.70
2022-09-05T07:56:54.204Z,22.74
2022-09-05T07:56:59.937Z,22.61
2022-09-05T07:58:52.228Z,22.90
2022-09-05T08:01:24.141Z,22.99
2022-09-05T08:04:05.615Z,23.26
2022-09-05T08:07:34.750Z,23.30
2022-09-05T08:10:06.836Z,23.02
2022-09-05T08:12:28.027Z,23.32
2022-09-05T08:15:14.179Z,23.25
2022-09-05T08:17:58.711Z,23.54
2022-09-05T08:20:37.008Z,23.51
2022-09-05T08:23:13.808Z,23.74
2022-09-05T08:25:57.276Z,23.82
2022-09-05T08:28:39.212Z,23.92
2022-09-05T08:31:14.479Z,24.16
2022-09-05T08:33:46.414Z,24.05
2022-09-05T08:36:28.997Z,24.24
2022-09-05T08:39:02.297Z,24.24
2022-09-05T08:41:49.284Z,24.55
2022-09-05T08:46:42.970Z,24.67
2022-09-05T08:47:26.368Z,24.62
2022-09-05T08:50:26.952Z,24.80
2022-09-05T08:53:45.707Z,24.70
2022-09-05T08:56:12.286Z,24.89
2022-09-05T08:59:31.498Z,25.08
2022-09-05T09:02:45.373Z,25.11
2022-09-05T09:05:22.687Z,25.05
2022-09-05T09:08:01.219Z,25.51
2022-09-05T09:10:46.770Z,25.55
2022-09-05T09:13:30.514Z,25.62
2022-09-05T09:16:08.185Z,25.60
2022-09-05T09:19:00.811Z,25.85
2022-09-05T09:21:41.496Z,25.94
2022-09-05T09:24:25.234Z,25.97
2022-09-05T09:27:03.241Z,26.00
2022-09-05T09:29:39.340Z,26.07
2022-09-05T09:32:13.466Z,26.39
2022-09-05T09:34:55.564Z,26.33
2022-09-05T09:37:59.779Z,26.31
2022-09-05T09:41:11.235Z,26.51
2022-09-05T09:44:09.375Z,26.58
2022-09-05T09:46:45.580Z,26.62
2022-09-05T09:49:36.175Z,26.54
2022-09-05T09:52:53.055Z,26.43
2022-09-05T09:55:52.203Z,26.67
2022-09-05T09:58:41.212Z,26.85
2022-09-05T10:01:36.569Z,26.95
2022-09-05T10:09:53.866Z,27.03
2022-09-05T10:10:53.747Z,27.17
2022-09-05T10:11:52.152Z,27.45
2022-09-05T10:14:49.931Z,27.59
2022-09-05T10:17:44.495Z,27.73
2022-09-05T10:20:29.730Z,27.91
2022-09-05T10:23:18.583Z,28.13
2022-09-05T10:26:18.847Z,28.23
2022-09-05T10:29:30.222Z,28.27
2022-09-05T10:35:09.625Z,28.37
2022-09-05T10:35:12.998Z,28.38
2022-09-05T10:37:51.701Z,28.46
2022-09-05T10:40:24.479Z,28.60
2022-09-05T10:43:00.205Z,28.62
2022-09-05T10:45:38.562Z,28.51
2022-09-05T10:48:18.224Z,28.69
2022-09-05T10:51:01.366Z,28.99
2022-09-05T10:53:44.751Z,29.14
2022-09-05T10:56:18.714Z,29.31
2022-09-05T11:01:17.792Z,29.63
2022-09-05T11:02:27.904Z,29.31
2022-09-05T11:04:55.740Z,29.45
2022-09-05T11:07:41.912Z,29.52
2022-09-05T11:10:17.760Z,29.35
2022-09-05T11:13:14.462Z,29.46
2022-09-05T11:16:04.954Z,29.49
2022-09-05T11:18:56.940Z,29.80
2022-09-05T11:21:43.264Z,29.38
2022-09-05T11:24:30.867Z,29.39
2022-09-05T11:27:25.305Z,29.57
2022-09-05T11:29:58.432Z,29.12
2022-09-05T11:39:45.900Z,29.68
2022-09-05T11:39:51.543Z,30.01
2022-09-05T11:40:02.702Z,30.22
2022-09-05T11:42:16.447Z,30.29
2022-09-05T11:45:02.153Z,30.11
2022-09-05T11:48:04.631Z,30.01
2022-09-05T11:50:59.405Z,30.13
2022-09-05T11:53:58.302Z,30.42
2022-09-05T11:57:15.674Z,30.35
2022-09-05T12:00:34.004Z,30.57
2022-09-05T12:03:57.250Z,30.45
2022-09-05T12:07:26.874Z,30.29
2022-09-05T12:10:45.779Z,30.30
2022-09-05T12:13:32.318Z,30.04
2022-09-05T12:16:26.572Z,30.37
2022-09-05T12:19:19.505Z,30.27
2022-09-05T12:22:08.780Z,30.46
2022-09-05T12:25:23.598Z,30.33
2022-09-05T12:27:46.133Z,29.76
2022-09-05T12:30:26.316Z,29.82
2022-09-05T12:36:05.731Z,29.61
2022-09-05T12:40:53.413Z,29.88
2022-09-05T12:41:34.467Z,30.10
2022-09-05T12:42:40.587Z,30.23
2022-09-05T12:45:32.959Z,30.04
2022-09-05T12:48:14.484Z,29.88
2022-09-05T12:50:57.163Z,29.83
2022-09-05T12:53:34.428Z,30.00
2022-09-05T12:56:45.946Z,30.21
2022-09-05T13:02:59.073Z,30.28
2022-09-05T13:03:03.635Z,29.98
2022-09-05T13:04:59.705Z,29.77
2022-09-05T13:07:42.967Z,29.64
2022-09-05T13:14:31.350Z,29.67
2022-09-05T13:14:54.907Z,29.96
2022-09-05T13:16:13.438Z,30.15
2022-09-05T13:18:57.236Z,30.02
2022-09-05T13:21:29.988Z,29.81
2022-09-05T13:24:12.445Z,30.00
2022-09-05T13:26:48.040Z,29.72
2022-09-05T13:29:21.274Z,29.85
2022-09-05T13:37:55.248Z,29.68
2022-09-05T13:38:20.159Z,29.57
2022-09-05T13:38:37.785Z,29.74
2022-09-05T13:41:01.334Z,29.74
2022-09-05T13:43:38.500Z,29.71
2022-09-05T13:46:17.305Z,29.64
2022-09-05T13:51:46.877Z,29.53
2022-09-05T13:54:39.443Z,29.67
2022-09-05T13:57:31.856Z,29.64
2022-09-05T14:00:31.986Z,29.59
2022-09-05T14:03:39.307Z,29.54
2022-09-05T14:06:46.174Z,29.57
2022-09-05T14:09:37.232Z,29.44
2022-09-05T14:12:15.330Z,29.51
2022-09-05T14:15:10.399Z,29.38
2022-09-05T14:17:58.667Z,29.32
2022-09-05T14:20:44.123Z,29.38
2022-09-05T14:23:21.946Z,29.34
2022-09-05T14:25:56.641Z,29.15
2022-09-05T14:28:33.008Z,29.07
2022-09-05T14:35:00.732Z,29.21
2022-09-05T14:37:46.747Z,29.25
2022-09-05T14:37:53.459Z,29.11
2022-09-05T14:41:05.913Z,29.06
2022-09-05T14:44:06.030Z,29.09
2022-09-05T14:46:56.719Z,29.03
2022-09-05T14:50:04.219Z,29.00
2022-09-05T14:52:43.419Z,29.06
2022-09-05T14:55:20.570Z,28.88
2022-09-05T15:02:41.910Z,28.86
2022-09-05T15:02:49.860Z,28.88
2022-09-05T15:06:42.741Z,28.57
2022-09-05T15:12:15.232Z,28.64
2022-09-05T15:12:31.333Z,28.67
2022-09-05T15:15:18.259Z,28.40
2022-09-05T15:17:51.638Z,28.15
2022-09-05T15:20:40.257Z,28.03
2022-09-05T15:23:16.725Z,27.81
2022-09-05T15:25:49.575Z,27.78
2022-09-05T15:28:24.121Z,27.86
2022-09-05T15:31:02.666Z,27.95
2022-09-05T15:33:33.568Z,27.95
2022-09-05T15:36:07.815Z,28.06
2022-09-05T15:38:54.395Z,28.04
2022-09-05T15:41:26.758Z,28.09
2022-09-05T15:44:01.375Z,28.10
2022-09-05T15:46:49.452Z,27.97
2022-09-05T15:49:38.013Z,27.98
2022-09-05T15:52:30.132Z,27.98
2022-09-05T15:55:06.229Z,27.88
2022-09-05T15:57:40.469Z,27.84
2022-09-05T16:00:12.470Z,27.82
2022-09-05T16:02:50.036Z,27.69
2022-09-05T16:10:31.699Z,27.66
2022-09-05T16:10:46.155Z,27.47
2022-09-05T16:12:06.281Z,27.37
2022-09-05T16:14:26.026Z,27.15
2022-09-05T16:23:14.934Z,27.14
2022-09-05T16:23:32.025Z,26.96
2022-09-05T16:23:35.079Z,27.03
2022-09-05T16:25:45.283Z,26.87
2022-09-05T16:28:19.428Z,26.84
2022-09-05T16:30:50.938Z,26.75
2022-09-05T16:33:30.709Z,26.65
2022-09-05T16:36:04.238Z,26.61
2022-09-05T16:38:49.947Z,26.54
2022-09-05T16:41:29.962Z,26.50
2022-09-05T16:44:07.421Z,26.48
2022-09-05T16:46:42.267Z,26.48
2022-09-05T16:49:18.663Z,26.49
2022-09-05T16:52:17.014Z,26.37
2022-09-05T16:54:53.405Z,26.24
2022-09-05T16:57:30.023Z,26.01
2022-09-05T17:00:00.627Z,25.91
2022-09-05T17:02:32.120Z,25.79
2022-09-05T17:05:12.907Z,25.67
2022-09-05T17:08:10.683Z,25.62
2022-09-05T17:10:57.785Z,25.51
2022-09-05T17:13:53.383Z,25.46
2022-09-05T17:16:31.390Z,25.42
2022-09-05T17:19:04.016Z,25.35
2022-09-05T17:24:56.755Z,25.26
2022-09-05T17:29:18.930Z,25.13
2022-09-05T17:29:45.582Z,24.94
2022-09-05T17:31:48.868Z,24.79
2022-09-05T17:33:19.542Z,24.73
2022-09-05T17:36:06.762Z,24.77
2022-09-05T17:38:52.936Z,24.91
2022-09-05T17:41:45.627Z,25.03
2022-09-05T17:44:24.837Z,25.06
2022-09-05T17:47:20.579Z,24.97
2022-09-05T17:50:14.812Z,24.92
2022-09-05T17:53:25.706Z,24.91
2022-09-05T17:56:15.222Z,24.81
2022-09-05T17:59:04.340Z,24.65
2022-09-05T18:01:35.035Z,24.43
2022-09-05T18:04:16.917Z,24.36
2022-09-05T18:07:00.179Z,24.25
2022-09-05T18:13:12.495Z,24.01
2022-09-05T18:16:12.451Z,23.90
2022-09-05T18:19:28.466Z,23.85
2022-09-05T18:21:54.305Z,23.77
2022-09-05T18:24:35.104Z,23.66
2022-09-05T18:27:36.519Z,23.54
2022-09-05T18:30:13.923Z,23.35
2022-09-05T18:32:53.372Z,23.29
2022-09-05T18:35:37.739Z,23.24
2022-09-05T18:38:51.378Z,23.21
2022-09-05T18:41:25.469Z,23.03
2022-09-05T18:44:12.360Z,22.90
2022-09-05T18:46:47.809Z,22.89
2022-09-05T18:50:23.898Z,22.98
2022-09-05T18:52:23.748Z,22.94
2022-09-05T18:56:10.574Z,22.85
2022-09-05T18:57:57.822Z,22.77
2022-09-05T19:00:44.552Z,22.67
2022-09-05T19:03:24.977Z,22.66
2022-09-05T19:06:36.144Z,22.75
2022-09-05T19:08:56.191Z,22.60
2022-09-05T19:11:33.649Z,22.63
2022-09-05T19:14:26.175Z,22.49
2022-09-05T19:17:07.692Z,22.43
2022-09-05T19:20:31.444Z,22.43
2022-09-05T19:23:11.272Z,22.22
2022-09-05T19:25:45.273Z,22.22
2022-09-05T19:36:49.226Z,22.22
2022-09-05T19:36:57.701Z,22.24
2022-09-05T19:37:23.871Z,22.21
2022-09-05T19:37:29.553Z,22.30
2022-09-05T19:44:11.115Z,22.29
2022-09-05T19:47:27.577Z,22.18
2022-09-05T19:47:48.753Z,22.20
2022-09-05T19:48:35.187Z,22.14
2022-09-05T19:51:16.171Z,22.09
2022-09-05T19:54:04.947Z,22.18
2022-09-05T19:56:39.057Z,22.22
2022-09-05T19:59:19.625Z,22.25
2022-09-05T20:01:53.346Z,22.26
2022-09-05T20:04:26.578Z,22.07
2022-09-05T20:06:56.468Z,22.00
2022-09-05T20:09:27.754Z,22.03
2022-09-05T20:11:59.995Z,21.81
2022-09-05T20:14:31.727Z,22.02
2022-09-05T20:17:22.331Z,21.96
2022-09-05T20:20:05.544Z,21.93
2022-09-05T20:22:49.358Z,22.02
2022-09-05T20:25:35.149Z,22.08
2022-09-05T20:28:10.222Z,22.19
2022-09-05T20:30:44.451Z,22.15
2022-09-05T20:33:22.486Z,22.12
2022-09-05T20:43:10.102Z,22.10
2022-09-05T20:43:17.746Z,22.05
2022-09-05T20:43:26.811Z,21.99
2022-09-05T20:44:41.618Z,21.97
2022-09-05T20:54:12.528Z,21.85
2022-09-05T20:54:20.538Z,21.82
2022-09-05T20:54:28.947Z,21.84
2022-09-05T20:56:06.560Z,21.80
2022-09-05T20:58:38.247Z,21.78
2022-09-05T21:01:21.717Z,21.68
2022-09-05T21:03:58.148Z,21.64
2022-09-05T21:06:33.724Z,21.61
2022-09-05T21:09:24.609Z,21.61
2022-09-05T21:11:58.830Z,21.48
2022-09-05T21:14:31.927Z,21.55
2022-09-05T21:17:13.352Z,21.54
2022-09-05T21:19:53.233Z,21.47
2022-09-05T21:22:39.414Z,21.45
2022-09-05T21:25:43.844Z,21.37
2022-09-05T21:28:32.616Z,21.27
2022-09-05T21:31:15.796Z,21.14
2022-09-05T21:33:47.237Z,21.21
2022-09-05T21:36:19.440Z,21.23
2022-09-05T21:38:51.850Z,21.17
2022-09-05T21:41:21.587Z,21.16
2022-09-05T21:47:35.654Z,21.11
2022-09-05T21:47:48.802Z,20.99
2022-09-05T21:49:35.287Z,20.96
2022-09-05T21:52:07.357Z,21.00
2022-09-05T21:59:19.801Z,20.96
2022-09-05T21:59:26.137Z,20.89
2022-09-05T22:00:26.419Z,20.86
2022-09-05T22:02:56.385Z,20.85
2022-09-05T22:05:26.362Z,20.80
2022-09-05T22:07:56.398Z,20.87
2022-09-05T22:10:40.009Z,20.83
2022-09-05T22:13:20.378Z,20.80
2022-09-05T22:15:50.087Z,20.73
2022-09-05T22:18:19.856Z,20.66
2022-09-05T22:21:33.278Z,20.67
2022-09-05T22:23:47.134Z,20.61
2022-09-05T22:26:21.485Z,20.61
2022-09-05T22:28:51.653Z,20.55
2022-09-05T22:31:22.261Z,20.42
2022-09-05T22:33:52.120Z,20.51
2022-09-05T22:36:21.897Z,20.52
2022-09-05T22:38:51.624Z,20.48
2022-09-05T22:41:28.113Z,20.46
2022-09-05T22:44:01.185Z,20.35
2022-09-05T22:46:31.211Z,20.38
2022-09-05T22:49:00.969Z,20.38
2022-09-05T22:51:30.699Z,20.43
2022-09-05T22:54:00.398Z,20.42
2022-09-05T22:56:37.587Z,20.33
2022-09-05T23:01:44.524Z,20.24
2022-09-05T23:04:14.348Z,20.18
2022-09-05T23:06:44.210Z,20.11
2022-09-05T23:09:13.957Z,20.21
2022-09-05T23:11:46.310Z,20.16
2022-09-05T23:14:16.009Z,20.18
2022-09-05T23:16:45.876Z,20.11
2022-09-05T23:19:15.551Z,20.11
2022-09-05T23:21:45.266Z,20.02
2022-09-05T23:24:14.963Z,19.98
2022-09-05T23:26:47.293Z,19.92
2022-09-05T23:29:17.101Z,19.93
2022-09-05T23:31:46.762Z,19.93
2022-09-05T23:34:16.462Z,19.94
2022-09-05T23:36:46.218Z,19.87
2022-09-05T23:39:15.904Z,19.86
2022-09-05T23:41:48.176Z,19.87
2022-09-05T23:44:17.853Z,19.78
2022-09-05T23:46:47.563Z,19.78
2022-09-05T23:49:17.318Z,19.77
2022-09-05T23:51:47.322Z,19.76
2022-09-05T23:54:17.052Z,19.68
2022-09-05T23:56:49.432Z,19.47
2022-09-05T23:59:19.165Z,19.48
